createdAt,value
2019-03-10T00:00:31.135Z,10.12
2019-03-10T00:01:35.368Z,10.11
2019-03-10T00:02:39.432Z,10.13
2019-03-10T00:03:43.056Z,10.08
2019-03-10T00:04:46.691Z,10.06
2019-03-10T00:05:50.628Z,9.95
2019-03-10T00:06:54.324Z,9.95
2019-03-10T00:07:57.930Z,9.91
2019-03-10T00:09:01.554Z,9.92
2019-03-10T00:10:08.100Z,9.90
2019-03-10T00:11:11.736Z,9.88
2019-03-10T00:12:15.405Z,9.84
2019-03-10T00:13:19.030Z,9.78
2019-03-10T00:14:22.676Z,9.71
2019-03-10T00:15:26.716Z,9.74
2019-03-10T00:16:30.343Z,9.74
2019-03-10T00:17:34.021Z,9.72
2019-03-10T00:18:37.650Z,9.71
2019-03-10T00:19:41.347Z,9.70
2019-03-10T00:20:45.391Z,9.62
2019-03-10T00:21:49.436Z,9.59
2019-03-10T00:22:53.111Z,9.57
2019-03-10T00:23:56.731Z,9.55
2019-03-10T00:25:00.369Z,9.58
2019-03-10T00:26:03.996Z,9.58
2019-03-10T00:27:07.630Z,9.57
2019-03-10T00:28:11.307Z,9.58
2019-03-10T00:29:15.248Z,9.57
2019-03-10T00:30:19.288Z,9.56
2019-03-10T00:31:23.246Z,9.54
2019-03-10T00:32:26.912Z,9.54
2019-03-10T00:33:30.584Z,9.48
2019-03-10T00:34:34.286Z,9.41
2019-03-10T00:35:38.215Z,9.44
2019-03-10T00:36:41.854Z,9.44
2019-03-10T00:37:45.494Z,9.42
2019-03-10T00:39:04.992Z,9.41
2019-03-10T00:40:40.000Z,9.43
2019-03-10T00:41:58.397Z,9.43
2019-03-10T00:43:23.104Z,9.39
2019-03-10T00:44:44.820Z,9.18
2019-03-10T00:46:11.114Z,9.14
2019-03-10T00:47:40.595Z,9.20
2019-03-10T00:49:02.074Z,9.26
2019-03-10T00:50:25.401Z,9.25
2019-03-10T00:51:37.964Z,9.20
2019-03-10T00:52:47.762Z,9.21
2019-03-10T00:53:51.396Z,9.23
2019-03-10T00:54:55.030Z,9.24
2019-03-10T00:55:58.677Z,9.20
2019-03-10T00:57:02.513Z,9.24
2019-03-10T00:58:06.202Z,9.26
2019-03-10T00:59:09.834Z,9.24
2019-03-10T01:00:16.543Z,9.18
2019-03-10T01:01:20.175Z,9.16
2019-03-10T01:02:24.010Z,9.18
2019-03-10T01:03:27.692Z,9.20
2019-03-10T01:04:31.333Z,9.26
2019-03-10T01:05:35.135Z,9.28
2019-03-10T01:06:39.006Z,9.28
2019-03-10T01:07:42.747Z,9.25
2019-03-10T01:08:46.471Z,9.22
2019-03-10T01:09:50.111Z,9.28
2019-03-10T01:10:53.947Z,9.31
2019-03-10T01:11:57.613Z,9.31
2019-03-10T01:13:01.741Z,9.28
2019-03-10T01:14:05.374Z,9.28
2019-03-10T01:15:13.440Z,9.26
2019-03-10T01:16:17.474Z,9.23
2019-03-10T01:17:22.058Z,9.24
2019-03-10T01:18:27.188Z,9.25
2019-03-10T01:19:31.933Z,9.23
2019-03-10T01:20:35.961Z,9.21
2019-03-10T01:21:40.417Z,9.11
2019-03-10T01:22:44.013Z,8.99
2019-03-10T01:23:47.576Z,9.01
2019-03-10T01:24:51.206Z,9.03
2019-03-10T01:25:54.838Z,9.09
2019-03-10T01:26:58.577Z,9.10
2019-03-10T01:28:02.213Z,9.11
2019-03-10T01:29:05.854Z,9.01
2019-03-10T01:30:14.919Z,8.99
2019-03-10T01:31:24.284Z,8.97
2019-03-10T01:32:48.909Z,8.87
2019-03-10T01:34:01.284Z,8.91
2019-03-10T01:35:14.002Z,8.98
2019-03-10T01:36:16.347Z,8.99
2019-03-10T01:37:19.976Z,8.98
2019-03-10T01:38:23.613Z,8.96
2019-03-10T01:39:27.277Z,8.95
2019-03-10T01:40:30.920Z,8.95
2019-03-10T01:41:34.611Z,8.95
2019-03-10T01:42:38.310Z,8.95
2019-03-10T01:43:41.944Z,8.91
2019-03-10T01:44:45.604Z,8.82
2019-03-10T01:45:49.247Z,8.74
2019-03-10T01:46:53.284Z,8.74
2019-03-10T01:47:59.186Z,8.74
2019-03-10T01:49:02.232Z,8.75
2019-03-10T01:50:08.163Z,8.75
2019-03-10T01:51:11.873Z,8.76
2019-03-10T01:52:15.502Z,8.76
2019-03-10T01:53:25.408Z,8.74
2019-03-10T01:54:24.876Z,8.67
2019-03-10T01:55:28.518Z,8.66
2019-03-10T01:56:32.075Z,8.66
2019-03-10T01:57:35.710Z,8.67
2019-03-10T01:58:39.346Z,8.54
2019-03-10T01:59:42.983Z,8.52
2019-03-10T02:00:46.988Z,8.49
2019-03-10T02:01:50.623Z,8.46
2019-03-10T02:02:54.261Z,8.46
2019-03-10T02:03:57.906Z,8.45
2019-03-10T02:05:01.545Z,8.45
2019-03-10T02:06:05.203Z,8.49
2019-03-10T02:07:09.184Z,8.50
2019-03-10T02:08:12.831Z,8.48
2019-03-10T02:09:16.409Z,8.43
2019-03-10T02:10:20.035Z,8.45
2019-03-10T02:11:23.680Z,8.48
2019-03-10T02:12:27.314Z,8.46
2019-03-10T02:13:31.341Z,8.39
2019-03-10T02:14:34.979Z,8.33
2019-03-10T02:15:38.616Z,8.26
2019-03-10T02:16:42.275Z,8.16
2019-03-10T02:17:45.905Z,8.21
2019-03-10T02:18:49.528Z,8.19
2019-03-10T02:19:54.385Z,8.20
2019-03-10T02:20:58.016Z,8.20
2019-03-10T02:22:01.678Z,8.20
2019-03-10T02:23:05.307Z,8.21
2019-03-10T02:24:09.256Z,8.25
2019-03-10T02:25:12.879Z,8.24
2019-03-10T02:26:16.505Z,8.21
2019-03-10T02:27:20.172Z,8.20
2019-03-10T02:28:23.798Z,8.18
2019-03-10T02:29:27.486Z,8.19
2019-03-10T02:30:31.096Z,8.17
2019-03-10T02:31:34.751Z,8.19
2019-03-10T02:32:38.402Z,8.17
2019-03-10T02:33:41.954Z,8.11
2019-03-10T02:34:45.589Z,7.87
2019-03-10T02:35:49.247Z,7.67
2019-03-10T02:36:52.950Z,7.62
2019-03-10T02:37:56.623Z,7.61
2019-03-10T02:39:00.252Z,7.57
2019-03-10T02:40:04.459Z,7.49
2019-03-10T02:41:08.454Z,7.42
2019-03-10T02:42:12.094Z,7.36
2019-03-10T02:43:15.764Z,7.36
2019-03-10T02:44:19.395Z,7.40
2019-03-10T02:45:23.029Z,7.32
2019-03-10T02:46:26.663Z,7.42
2019-03-10T02:47:30.311Z,7.42
2019-03-10T02:48:34.077Z,7.36
2019-03-10T02:49:37.645Z,7.22
2019-03-10T02:50:41.280Z,7.07
2019-03-10T02:51:44.916Z,6.99
2019-03-10T02:52:48.556Z,6.93
2019-03-10T02:53:52.467Z,6.98
2019-03-10T02:54:56.109Z,7.04
2019-03-10T02:55:59.745Z,7.08
2019-03-10T02:57:03.388Z,7.16
2019-03-10T02:58:07.017Z,7.17
2019-03-10T02:59:10.712Z,7.11
2019-03-10T03:00:14.543Z,6.98
2019-03-10T03:01:18.204Z,6.88
2019-03-10T03:02:22.295Z,6.82
2019-03-10T03:03:25.926Z,6.83
2019-03-10T03:04:29.599Z,6.90
2019-03-10T03:05:33.237Z,6.96
2019-03-10T03:06:36.873Z,7.01
2019-03-10T03:07:40.509Z,7.10
2019-03-10T03:08:44.145Z,7.18
2019-03-10T03:09:47.801Z,7.17
2019-03-10T03:10:51.440Z,7.11
2019-03-10T03:11:55.121Z,6.98
2019-03-10T03:12:58.761Z,6.85
2019-03-10T03:14:02.397Z,6.84
2019-03-10T03:15:08.323Z,6.88
2019-03-10T03:16:11.956Z,6.93
2019-03-10T03:17:15.583Z,6.96
2019-03-10T03:18:19.229Z,7.00
2019-03-10T03:19:22.846Z,7.04
2019-03-10T03:20:26.441Z,7.08
2019-03-10T03:21:42.503Z,7.03
2019-03-10T03:22:35.448Z,6.76
2019-03-10T03:23:39.001Z,6.64
2019-03-10T03:24:42.633Z,6.60
2019-03-10T03:25:46.311Z,6.54
2019-03-10T03:26:49.939Z,6.60
2019-03-10T03:27:53.507Z,6.67
2019-03-10T03:28:57.145Z,6.71
2019-03-10T03:30:00.792Z,6.76
2019-03-10T03:31:04.819Z,6.78
2019-03-10T03:32:08.472Z,6.81
2019-03-10T03:33:12.033Z,6.73
2019-03-10T03:34:15.694Z,6.61
2019-03-10T03:35:48.708Z,6.48
2019-03-10T03:36:52.366Z,6.29
2019-03-10T03:37:55.997Z,6.29
2019-03-10T03:39:08.167Z,6.37
2019-03-10T03:40:11.817Z,6.48
2019-03-10T03:41:20.697Z,6.55
2019-03-10T03:42:24.289Z,6.52
2019-03-10T03:43:27.917Z,6.60
2019-03-10T03:44:31.622Z,6.58
2019-03-10T03:45:35.279Z,6.50
2019-03-10T03:46:38.932Z,6.39
2019-03-10T03:47:42.632Z,6.35
2019-03-10T03:48:46.338Z,6.33
2019-03-10T03:49:49.966Z,6.38
2019-03-10T03:50:53.640Z,6.43
2019-03-10T03:51:57.268Z,6.51
2019-03-10T03:53:00.834Z,6.58
2019-03-10T03:54:04.465Z,6.61
2019-03-10T03:55:08.265Z,6.50
2019-03-10T03:56:11.935Z,6.37
2019-03-10T03:57:15.577Z,6.31
2019-03-10T03:58:19.254Z,6.23
2019-03-10T03:59:22.918Z,6.15
2019-03-10T04:00:26.637Z,6.30
2019-03-10T04:01:31.942Z,6.40
2019-03-10T04:02:36.737Z,6.45
2019-03-10T04:03:40.379Z,6.46
2019-03-10T04:04:44.013Z,6.47
2019-03-10T04:05:47.639Z,6.40
2019-03-10T04:06:51.305Z,6.38
2019-03-10T04:07:54.874Z,6.34
2019-03-10T04:08:58.501Z,6.31
2019-03-10T04:10:02.153Z,6.32
2019-03-10T04:11:05.772Z,6.28
2019-03-10T04:12:09.456Z,6.32
2019-03-10T04:13:13.377Z,6.36
2019-03-10T04:14:17.384Z,6.45
2019-03-10T04:15:21.110Z,6.51
2019-03-10T04:16:24.722Z,6.54
2019-03-10T04:17:28.396Z,6.37
2019-03-10T04:18:32.038Z,6.23
2019-03-10T04:19:35.662Z,6.11
2019-03-10T04:20:39.301Z,5.97
2019-03-10T04:21:42.939Z,5.95
2019-03-10T04:22:46.699Z,6.01
2019-03-10T04:23:50.276Z,6.12
2019-03-10T04:24:53.902Z,6.20
2019-03-10T04:25:57.610Z,6.30
2019-03-10T04:27:01.206Z,6.35
2019-03-10T04:28:04.882Z,6.37
2019-03-10T04:29:08.521Z,6.22
2019-03-10T04:30:13.267Z,6.05
2019-03-10T04:31:16.895Z,5.83
2019-03-10T04:32:20.531Z,5.71
2019-03-10T04:33:24.201Z,5.68
2019-03-10T04:34:27.754Z,5.77
2019-03-10T04:35:31.488Z,5.88
2019-03-10T04:36:35.120Z,5.95
2019-03-10T04:37:38.763Z,6.02
2019-03-10T04:38:42.425Z,6.08
2019-03-10T04:39:45.999Z,6.08
2019-03-10T04:40:49.685Z,5.97
2019-03-10T04:41:53.322Z,5.75
2019-03-10T04:42:56.881Z,5.52
2019-03-10T04:44:00.544Z,5.43
2019-03-10T04:45:05.481Z,5.41
2019-03-10T04:46:09.263Z,5.56
2019-03-10T04:47:12.902Z,5.69
2019-03-10T04:48:16.536Z,5.84
2019-03-10T04:49:20.251Z,5.97
2019-03-10T04:50:23.821Z,6.00
2019-03-10T04:51:27.448Z,5.92
2019-03-10T04:52:32.052Z,5.85
2019-03-10T04:53:35.684Z,5.76
2019-03-10T04:54:59.037Z,5.57
2019-03-10T04:56:07.320Z,5.45
2019-03-10T04:57:12.605Z,5.36
2019-03-10T04:58:20.559Z,5.41
2019-03-10T04:59:24.186Z,5.40
2019-03-10T05:00:28.515Z,5.30
2019-03-10T05:01:32.224Z,5.21
2019-03-10T05:02:35.865Z,5.17
2019-03-10T05:03:39.493Z,5.30
2019-03-10T05:04:43.121Z,5.41
2019-03-10T05:05:46.763Z,5.45
2019-03-10T05:06:50.399Z,5.40
2019-03-10T05:07:53.968Z,5.38
2019-03-10T05:08:57.982Z,5.32
2019-03-10T05:10:01.621Z,5.24
2019-03-10T05:11:05.674Z,5.21
2019-03-10T05:12:09.245Z,5.22
2019-03-10T05:13:12.883Z,5.21
2019-03-10T05:14:16.528Z,5.28
2019-03-10T05:15:20.164Z,5.23
2019-03-10T05:16:23.831Z,5.11
2019-03-10T05:17:27.470Z,5.08
2019-03-10T05:18:31.108Z,5.02
2019-03-10T05:19:34.749Z,5.05
2019-03-10T05:20:38.388Z,5.08
2019-03-10T05:21:42.070Z,5.10
2019-03-10T05:22:45.721Z,5.08
2019-03-10T05:23:49.367Z,5.08
2019-03-10T05:24:53.008Z,5.07
2019-03-10T05:25:56.951Z,5.06
2019-03-10T05:27:00.744Z,5.13
2019-03-10T05:28:04.380Z,5.12
2019-03-10T05:29:08.261Z,5.33
2019-03-10T05:30:12.100Z,5.35
2019-03-10T05:31:15.825Z,5.41
2019-03-10T05:32:19.507Z,5.47
2019-03-10T05:33:23.540Z,5.35
2019-03-10T05:34:27.115Z,5.33
2019-03-10T05:35:30.750Z,5.32
2019-03-10T05:36:34.394Z,5.35
2019-03-10T05:37:38.060Z,5.34
2019-03-10T05:38:41.708Z,5.39
2019-03-10T05:39:45.347Z,5.41
2019-03-10T05:40:49.042Z,5.41
2019-03-10T05:41:52.606Z,5.42
2019-03-10T05:42:56.295Z,5.43
2019-03-10T05:43:59.979Z,5.55
2019-03-10T05:45:04.597Z,5.75
2019-03-10T05:46:08.240Z,5.83
2019-03-10T05:47:11.883Z,5.82
2019-03-10T05:48:15.496Z,5.77
2019-03-10T05:49:19.453Z,5.70
2019-03-10T05:50:23.200Z,5.78
2019-03-10T05:51:26.795Z,5.80
2019-03-10T05:52:30.496Z,5.85
2019-03-10T05:53:34.173Z,5.84
2019-03-10T05:54:37.822Z,5.84
2019-03-10T05:55:45.432Z,5.88
2019-03-10T05:56:49.077Z,5.85
2019-03-10T05:57:52.708Z,5.84
2019-03-10T05:58:56.349Z,5.85
2019-03-10T06:00:00.026Z,5.93
2019-03-10T06:01:05.353Z,5.97
2019-03-10T06:02:09.006Z,5.99
2019-03-10T06:03:13.815Z,6.02
2019-03-10T06:04:18.951Z,6.00
2019-03-10T06:05:24.130Z,6.06
2019-03-10T06:06:27.761Z,6.05
2019-03-10T06:07:31.331Z,6.16
2019-03-10T06:08:34.893Z,6.13
2019-03-10T06:09:38.646Z,6.06
2019-03-10T06:10:42.313Z,6.08
2019-03-10T06:11:45.948Z,6.17
2019-03-10T06:12:49.605Z,6.27
2019-03-10T06:13:53.394Z,6.20
2019-03-10T06:14:57.064Z,6.23
2019-03-10T06:16:00.769Z,6.30
2019-03-10T06:17:04.404Z,6.25
2019-03-10T06:18:13.831Z,6.24
2019-03-10T06:19:17.684Z,6.25
2019-03-10T06:20:21.399Z,6.31
2019-03-10T06:21:25.708Z,6.41
2019-03-10T06:22:29.338Z,6.50
2019-03-10T06:23:32.979Z,6.55
2019-03-10T06:24:36.605Z,6.57
2019-03-10T06:25:40.281Z,6.59
2019-03-10T06:26:43.908Z,6.65
2019-03-10T06:27:47.546Z,6.74
2019-03-10T06:28:51.157Z,6.79
2019-03-10T06:29:54.747Z,6.85
2019-03-10T06:30:58.423Z,6.87
2019-03-10T06:32:02.085Z,7.00
2019-03-10T06:33:05.725Z,7.17
2019-03-10T06:34:09.304Z,7.28
2019-03-10T06:35:12.942Z,7.26
2019-03-10T06:36:16.592Z,7.24
2019-03-10T06:37:20.230Z,7.25
2019-03-10T06:38:23.919Z,7.29
2019-03-10T06:39:27.558Z,7.41
2019-03-10T06:40:32.423Z,7.38
2019-03-10T06:41:36.426Z,7.53
2019-03-10T06:42:39.976Z,7.78
2019-03-10T06:43:43.861Z,7.95
2019-03-10T06:44:47.647Z,7.91
2019-03-10T06:45:51.287Z,7.85
2019-03-10T06:46:54.997Z,8.01
2019-03-10T06:47:58.678Z,8.11
2019-03-10T06:49:03.889Z,8.24
2019-03-10T06:50:12.233Z,8.48
2019-03-10T06:51:15.822Z,8.65
2019-03-10T06:52:19.445Z,8.52
2019-03-10T06:53:23.081Z,8.52
2019-03-10T06:54:26.731Z,8.58
2019-03-10T06:55:30.375Z,8.65
2019-03-10T06:56:34.005Z,8.64
2019-03-10T06:57:37.656Z,8.67
2019-03-10T06:58:41.297Z,8.73
2019-03-10T06:59:45.039Z,8.75
2019-03-10T07:00:48.671Z,8.87
2019-03-10T07:01:52.304Z,8.90
2019-03-10T07:02:55.869Z,8.86
2019-03-10T07:03:59.432Z,8.76
2019-03-10T07:05:03.105Z,8.81
2019-03-10T07:06:11.052Z,8.75
2019-03-10T07:07:14.304Z,8.63
2019-03-10T07:08:17.872Z,8.74
2019-03-10T07:09:21.553Z,8.74
2019-03-10T07:10:28.436Z,8.69
2019-03-10T07:11:34.158Z,8.62
2019-03-10T07:12:37.907Z,8.85
2019-03-10T07:13:41.578Z,9.02
2019-03-10T07:14:45.214Z,8.99
2019-03-10T07:15:48.955Z,8.94
2019-03-10T07:16:52.684Z,9.13
2019-03-10T07:17:56.383Z,9.18
2019-03-10T07:19:00.349Z,9.13
2019-03-10T07:20:05.474Z,9.19
2019-03-10T07:21:09.100Z,9.29
2019-03-10T07:22:12.726Z,9.33
2019-03-10T07:23:17.755Z,9.51
2019-03-10T07:24:21.369Z,9.58
2019-03-10T07:25:26.643Z,9.59
2019-03-10T07:26:33.058Z,9.56
2019-03-10T07:27:38.377Z,9.51
2019-03-10T07:28:49.453Z,9.50
2019-03-10T07:30:00.961Z,9.59
2019-03-10T07:31:06.293Z,9.72
2019-03-10T07:32:14.565Z,9.88
2019-03-10T07:33:22.688Z,9.95
2019-03-10T07:34:28.369Z,10.04
2019-03-10T07:35:33.655Z,10.11
2019-03-10T07:36:38.932Z,10.23
2019-03-10T07:37:50.239Z,10.39
2019-03-10T07:38:58.514Z,10.48
2019-03-10T07:40:05.427Z,10.48
2019-03-10T07:41:26.030Z,10.50
2019-03-10T07:42:37.405Z,10.80
2019-03-10T07:43:45.433Z,10.80
2019-03-10T07:45:08.934Z,10.99
2019-03-10T07:46:28.935Z,11.17
2019-03-10T07:47:34.222Z,11.45
2019-03-10T07:48:48.656Z,11.73
2019-03-10T07:50:05.808Z,12.25
2019-03-10T07:51:11.024Z,12.51
2019-03-10T07:52:20.142Z,12.77
2019-03-10T07:53:26.463Z,12.77
2019-03-10T07:54:37.637Z,13.38
2019-03-10T07:55:47.735Z,13.38
2019-03-10T07:57:09.236Z,13.77
2019-03-10T07:58:23.650Z,13.98
2019-03-10T07:59:44.856Z,14.29
2019-03-10T08:00:59.321Z,14.57
2019-03-10T08:02:20.600Z,14.89
2019-03-10T08:03:41.017Z,15.31
2019-03-10T08:04:46.347Z,15.40
2019-03-10T08:05:51.622Z,15.63
2019-03-10T08:06:59.639Z,16.19
2019-03-10T08:08:07.918Z,16.19
2019-03-10T08:09:13.212Z,16.36
2019-03-10T08:10:21.174Z,16.29
2019-03-10T08:11:29.187Z,16.29
2019-03-10T08:12:37.293Z,16.12
2019-03-10T08:13:48.558Z,16.32
2019-03-10T08:15:10.113Z,16.47
2019-03-10T08:16:18.129Z,16.74
2019-03-10T08:17:24.588Z,16.88
2019-03-10T08:18:45.336Z,16.97
2019-03-10T08:20:08.693Z,16.62
2019-03-10T08:21:20.093Z,16.41
2019-03-10T08:22:37.866Z,16.54
2019-03-10T08:23:59.236Z,16.48
2019-03-10T08:25:07.012Z,16.60
2019-03-10T08:26:21.213Z,16.85
2019-03-10T08:27:38.773Z,17.29
2019-03-10T08:28:58.948Z,17.37
2019-03-10T08:30:04.228Z,17.58
2019-03-10T08:31:13.867Z,17.71
2019-03-10T08:32:26.289Z,17.88
2019-03-10T08:33:49.826Z,17.85
2019-03-10T08:34:55.135Z,17.70
2019-03-10T08:36:00.408Z,17.46
2019-03-10T08:37:11.819Z,17.66
2019-03-10T08:38:33.403Z,17.82
2019-03-10T08:39:44.515Z,18.07
2019-03-10T08:40:52.585Z,18.43
2019-03-10T08:42:03.606Z,18.75
2019-03-10T08:43:08.822Z,18.88
2019-03-10T08:44:22.951Z,18.66
2019-03-10T08:45:37.415Z,18.71
2019-03-10T08:47:01.126Z,18.80
2019-03-10T08:48:15.424Z,18.93
2019-03-10T08:49:29.627Z,19.26
2019-03-10T08:50:34.835Z,19.52
2019-03-10T08:51:46.047Z,19.80
2019-03-10T08:52:53.768Z,20.18
2019-03-10T08:54:04.855Z,20.22
2019-03-10T08:55:19.393Z,20.53
2019-03-10T08:56:24.562Z,21.18
2019-03-10T08:57:29.835Z,21.28
2019-03-10T08:58:35.047Z,21.46
2019-03-10T08:59:46.388Z,21.62
2019-03-10T09:01:10.119Z,21.69
2019-03-10T09:02:18.096Z,21.85
2019-03-10T09:03:29.344Z,22.44
2019-03-10T09:04:34.684Z,22.80
2019-03-10T09:05:52.178Z,22.95
2019-03-10T09:07:09.501Z,23.16
2019-03-10T09:08:20.555Z,23.72
2019-03-10T09:09:41.006Z,24.20
2019-03-10T09:10:46.222Z,24.55
2019-03-10T09:11:51.505Z,24.34
2019-03-10T09:13:12.024Z,24.09
2019-03-10T09:14:26.550Z,24.17
2019-03-10T09:15:41.286Z,24.60
2019-03-10T09:16:49.382Z,24.97
2019-03-10T09:18:00.656Z,25.05
2019-03-10T09:19:24.074Z,25.51
2019-03-10T09:20:29.365Z,25.49
2019-03-10T09:21:40.444Z,25.33
2019-03-10T09:22:45.716Z,25.36
2019-03-10T09:23:50.990Z,25.18
2019-03-10T09:25:08.234Z,25.33
2019-03-10T09:26:13.534Z,25.47
2019-03-10T09:27:35.223Z,25.59
2019-03-10T09:28:49.692Z,25.79
2019-03-10T09:30:11.286Z,26.00
2019-03-10T09:31:18.961Z,25.87
2019-03-10T09:32:37.001Z,26.35
2019-03-10T09:33:45.504Z,26.65
2019-03-10T09:34:50.855Z,26.91
2019-03-10T09:36:05.103Z,27.17
2019-03-10T09:37:10.381Z,27.29
2019-03-10T09:38:31.851Z,27.69
2019-03-10T09:39:40.172Z,27.84
2019-03-10T09:40:45.453Z,27.72
2019-03-10T09:42:08.523Z,28.00
2019-03-10T09:43:13.803Z,28.21
2019-03-10T09:44:19.086Z,28.02
2019-03-10T09:45:27.205Z,28.10
2019-03-10T09:46:32.498Z,28.10
2019-03-10T09:47:40.502Z,28.02
2019-03-10T09:48:45.780Z,27.79
2019-03-10T09:49:51.060Z,28.16
2019-03-10T09:51:05.197Z,28.56
2019-03-10T09:52:16.794Z,28.63
2019-03-10T09:53:24.684Z,28.61
2019-03-10T09:54:29.949Z,28.90
2019-03-10T09:55:41.514Z,29.32
2019-03-10T09:56:58.806Z,29.64
2019-03-10T09:58:06.932Z,29.63
2019-03-10T09:59:24.151Z,29.94
2019-03-10T10:00:32.511Z,29.31
2019-03-10T10:01:54.214Z,29.38
2019-03-10T10:03:05.247Z,29.57
2019-03-10T10:04:13.550Z,29.99
2019-03-10T10:05:34.182Z,30.51
2019-03-10T10:06:39.522Z,30.89
2019-03-10T10:07:44.874Z,31.27
2019-03-10T10:08:50.312Z,31.04
2019-03-10T10:10:08.704Z,31.00
2019-03-10T10:11:13.994Z,30.74
2019-03-10T10:12:27.813Z,30.33
2019-03-10T10:13:33.089Z,30.65
2019-03-10T10:14:44.372Z,31.11
2019-03-10T10:15:55.746Z,31.48
2019-03-10T10:17:01.026Z,31.01
2019-03-10T10:18:09.292Z,30.93
2019-03-10T10:19:14.578Z,31.34
2019-03-10T10:20:19.868Z,31.86
2019-03-10T10:21:34.011Z,32.31
2019-03-10T10:22:45.301Z,32.67
2019-03-10T10:23:53.419Z,32.35
2019-03-10T10:24:58.690Z,31.80
2019-03-10T10:26:11.107Z,31.34
2019-03-10T10:27:20.288Z,31.09
2019-03-10T10:28:25.559Z,31.08
2019-03-10T10:29:36.810Z,31.35
2019-03-10T10:30:51.275Z,31.44
2019-03-10T10:32:11.713Z,31.66
2019-03-10T10:33:22.778Z,31.63
2019-03-10T10:34:33.648Z,31.25
2019-03-10T10:35:38.924Z,31.24
2019-03-10T10:36:59.308Z,31.49
2019-03-10T10:38:04.648Z,31.33
2019-03-10T10:39:25.440Z,30.88
2019-03-10T10:40:30.721Z,31.02
2019-03-10T10:41:41.977Z,31.26
2019-03-10T10:43:02.379Z,31.56
2019-03-10T10:44:13.539Z,31.63
2019-03-10T10:45:18.790Z,31.92
2019-03-10T10:46:39.423Z,32.03
2019-03-10T10:47:57.148Z,32.05
2019-03-10T10:49:02.415Z,32.29
2019-03-10T10:50:10.622Z,32.54
2019-03-10T10:51:24.949Z,32.79
2019-03-10T10:52:32.970Z,32.98
2019-03-10T10:53:44.206Z,33.01
2019-03-10T10:54:58.379Z,33.23
2019-03-10T10:56:03.568Z,33.51
2019-03-10T10:57:20.792Z,33.97
2019-03-10T10:58:42.313Z,34.27
2019-03-10T10:59:50.556Z,34.86
2019-03-10T11:00:55.868Z,35.25
2019-03-10T11:02:01.180Z,35.60
2019-03-10T11:03:15.683Z,35.72
2019-03-10T11:04:23.883Z,35.81
2019-03-10T11:05:32.132Z,35.86
2019-03-10T11:06:54.061Z,35.85
2019-03-10T11:08:11.494Z,36.12
2019-03-10T11:09:23.497Z,36.12
2019-03-10T11:10:44.928Z,36.17
2019-03-10T11:11:50.358Z,36.20
2019-03-10T11:12:55.698Z,36.46
2019-03-10T11:14:03.957Z,36.78
2019-03-10T11:15:10.735Z,36.68
2019-03-10T11:16:19.219Z,36.87
2019-03-10T11:17:40.659Z,36.50
2019-03-10T11:18:54.726Z,36.78
2019-03-10T11:19:59.979Z,37.32
2019-03-10T11:21:05.658Z,37.20
2019-03-10T11:22:16.718Z,37.38
2019-03-10T11:23:36.999Z,37.67
2019-03-10T11:24:43.395Z,38.15
2019-03-10T11:26:03.718Z,38.43
2019-03-10T11:27:09.011Z,38.92
2019-03-10T11:28:17.222Z,39.11
2019-03-10T11:29:22.423Z,38.97
2019-03-10T11:30:27.696Z,39.30
2019-03-10T11:31:35.595Z,39.47
2019-03-10T11:32:52.895Z,39.87
2019-03-10T11:34:01.712Z,39.70
2019-03-10T11:35:09.183Z,39.51
2019-03-10T11:36:26.429Z,39.53
2019-03-10T11:37:31.726Z,39.60
2019-03-10T11:38:37.310Z,39.26
2019-03-10T11:39:43.114Z,39.29
2019-03-10T11:40:51.398Z,39.67
2019-03-10T11:42:02.187Z,38.69
2019-03-10T11:43:10.220Z,37.62
2019-03-10T11:44:15.498Z,37.28
2019-03-10T11:45:35.787Z,36.21
2019-03-10T11:46:52.951Z,35.97
2019-03-10T11:48:07.084Z,36.62
2019-03-10T11:49:12.396Z,37.34
2019-03-10T11:50:33.157Z,37.37
2019-03-10T11:51:55.124Z,37.42
2019-03-10T11:53:19.097Z,37.69
2019-03-10T11:54:25.422Z,37.36
2019-03-10T11:55:33.513Z,37.20
2019-03-10T11:56:57.203Z,37.02
2019-03-10T11:58:02.453Z,37.02
2019-03-10T11:59:24.104Z,37.01
2019-03-10T12:00:29.421Z,36.99
2019-03-10T12:01:47.018Z,37.47
2019-03-10T12:02:52.304Z,37.72
2019-03-10T12:03:59.016Z,37.86
2019-03-10T12:05:06.953Z,37.84
2019-03-10T12:06:12.266Z,38.17
2019-03-10T12:07:17.564Z,38.35
2019-03-10T12:08:22.909Z,38.76
2019-03-10T12:09:26.628Z,38.93
2019-03-10T12:10:30.389Z,39.56
2019-03-10T12:11:34.095Z,39.49
2019-03-10T12:12:37.749Z,39.94
2019-03-10T12:13:41.368Z,39.89
2019-03-10T12:14:46.807Z,39.67
2019-03-10T12:15:50.495Z,38.43
2019-03-10T12:16:54.530Z,37.63
2019-03-10T12:17:58.169Z,37.88
2019-03-10T12:19:01.792Z,38.09
2019-03-10T12:20:13.219Z,37.35
2019-03-10T12:21:16.843Z,37.49
2019-03-10T12:22:20.494Z,37.32
2019-03-10T12:23:27.011Z,36.69
2019-03-10T12:24:30.650Z,37.45
2019-03-10T12:25:34.280Z,38.35
2019-03-10T12:26:37.891Z,38.93
2019-03-10T12:27:41.577Z,39.47
2019-03-10T12:28:45.189Z,39.57
2019-03-10T12:29:48.825Z,39.61
2019-03-10T12:30:52.551Z,39.77
2019-03-10T12:31:56.186Z,40.12
2019-03-10T12:32:59.870Z,40.24
2019-03-10T12:34:06.161Z,40.18
2019-03-10T12:35:11.428Z,39.56
2019-03-10T12:36:15.058Z,39.11
2019-03-10T12:37:20.159Z,38.91
2019-03-10T12:38:23.832Z,38.73
2019-03-10T12:39:27.469Z,38.71
2019-03-10T12:40:31.100Z,38.99
2019-03-10T12:41:34.745Z,39.04
2019-03-10T12:42:38.388Z,38.38
2019-03-10T12:43:42.035Z,37.54
2019-03-10T12:44:45.662Z,37.52
2019-03-10T12:45:49.706Z,37.33
2019-03-10T12:46:54.810Z,37.06
2019-03-10T12:47:58.873Z,37.30
2019-03-10T12:49:02.547Z,37.38
2019-03-10T12:50:14.126Z,37.33
2019-03-10T12:51:17.763Z,37.61
2019-03-10T12:52:21.420Z,37.78
2019-03-10T12:53:25.034Z,38.10
2019-03-10T12:54:28.705Z,38.42
2019-03-10T12:55:32.268Z,38.16
2019-03-10T12:56:35.917Z,37.87
2019-03-10T12:57:39.601Z,37.64
2019-03-10T12:58:43.220Z,37.80
2019-03-10T12:59:46.900Z,37.45
2019-03-10T13:00:50.537Z,36.87
2019-03-10T13:01:54.311Z,37.08
2019-03-10T13:02:59.487Z,37.07
2019-03-10T13:04:03.092Z,37.12
2019-03-10T13:05:08.879Z,37.47
2019-03-10T13:06:12.538Z,37.12
2019-03-10T13:07:16.183Z,36.61
2019-03-10T13:08:19.812Z,36.63
2019-03-10T13:09:23.476Z,36.97
2019-03-10T13:10:28.337Z,36.96
2019-03-10T13:11:33.404Z,36.19
2019-03-10T13:12:37.119Z,35.20
2019-03-10T13:13:41.100Z,35.32
2019-03-10T13:14:44.645Z,34.99
2019-03-10T13:15:48.316Z,34.61
2019-03-10T13:16:51.948Z,34.87
2019-03-10T13:17:55.593Z,35.61
2019-03-10T13:18:59.239Z,36.17
2019-03-10T13:20:02.861Z,36.63
2019-03-10T13:21:06.527Z,36.63
2019-03-10T13:22:10.174Z,36.89
2019-03-10T13:23:13.986Z,36.42
2019-03-10T13:24:17.624Z,36.54
2019-03-10T13:25:21.280Z,36.14
2019-03-10T13:26:24.919Z,35.15
2019-03-10T13:27:28.544Z,34.97
2019-03-10T13:28:32.175Z,35.04
2019-03-10T13:29:35.914Z,35.51
2019-03-10T13:30:40.460Z,36.04
2019-03-10T13:31:45.549Z,36.54
2019-03-10T13:32:49.194Z,36.44
2019-03-10T13:33:52.745Z,36.64
2019-03-10T13:34:58.023Z,37.09
2019-03-10T13:36:01.647Z,37.37
2019-03-10T13:37:05.379Z,37.22
2019-03-10T13:38:10.672Z,37.32
2019-03-10T13:39:14.439Z,37.21
2019-03-10T13:40:18.059Z,36.85
2019-03-10T13:41:21.695Z,36.96
2019-03-10T13:42:25.355Z,37.04
2019-03-10T13:43:28.987Z,37.19
2019-03-10T13:44:32.686Z,37.16
2019-03-10T13:45:36.414Z,37.10
2019-03-10T13:46:40.057Z,37.06
2019-03-10T13:47:46.708Z,36.89
2019-03-10T13:48:50.311Z,36.95
2019-03-10T13:49:55.055Z,36.77
2019-03-10T13:50:58.850Z,36.62
2019-03-10T13:52:02.860Z,36.69
2019-03-10T13:53:09.540Z,36.55
2019-03-10T13:54:13.183Z,36.04
2019-03-10T13:55:16.818Z,35.24
2019-03-10T13:56:20.450Z,34.49
2019-03-10T13:57:24.434Z,34.35
2019-03-10T13:58:28.090Z,34.32
2019-03-10T13:59:31.711Z,34.54
2019-03-10T14:00:35.340Z,34.63
2019-03-10T14:01:38.969Z,34.82
2019-03-10T14:02:42.615Z,34.74
2019-03-10T14:03:46.286Z,34.16
2019-03-10T14:04:49.919Z,33.81
2019-03-10T14:05:53.570Z,33.62
2019-03-10T14:06:57.196Z,33.64
2019-03-10T14:08:00.829Z,33.33
2019-03-10T14:09:06.857Z,33.44
2019-03-10T14:10:12.266Z,33.52
2019-03-10T14:11:15.905Z,33.56
2019-03-10T14:12:19.619Z,33.32
2019-03-10T14:13:23.254Z,33.12
2019-03-10T14:14:31.016Z,32.80
2019-03-10T14:15:36.205Z,32.42
2019-03-10T14:16:39.842Z,32.48
2019-03-10T14:17:43.470Z,32.46
2019-03-10T14:18:47.104Z,32.24
2019-03-10T14:19:50.741Z,32.09
2019-03-10T14:20:54.369Z,31.87
2019-03-10T14:21:58.346Z,31.65
2019-03-10T14:23:01.904Z,31.59
2019-03-10T14:24:05.933Z,31.65
2019-03-10T14:25:11.106Z,31.67
2019-03-10T14:26:14.824Z,31.77
2019-03-10T14:27:18.757Z,31.60
2019-03-10T14:28:22.789Z,31.25
2019-03-10T14:29:26.891Z,30.86
2019-03-10T14:30:30.558Z,30.19
2019-03-10T14:31:34.546Z,29.62
2019-03-10T14:32:38.181Z,29.47